Bournemouth, United Kingdom

5:58 AM BST on October 22, 2014 (GMT +0100)
Bournemouth | Change Station
CLOSE
Current Station
Airport
Location: Bournemouth,
Elevation: 36 ft
Nearby Weather Stations

Elev 36 ft 50.78 °N, 1.84 °W | Updated 8 minutes ago

Clear
Clear
37 °F
Feels Like 32 °F
N
7
Wind Variable Wind from West

Today
High -- | Low -- °F
--% Chance of Precip.
Yesterday
High -- | Low -- °F
Precip. -- in
7:41 AM 6:01 PM
Waning Crescent, 3% visible
Pressure 30.30 in
Visibility -9999.0 miles
Clouds
Windchill 32 °F
Dew Point 36 °F
Humidity 93%
Rainfall 0.00 in
Snow Depth Not available.
UV Not available.
Pollen Not available.
Air Quality Not available.
Flu Activity Not available.
METAR EGHH 220450Z 27006KT CAVOK 03/02 Q1026

More Conditions Fewer Conditions

Pressure 30.30 in
Visibility -9999.0 miles
Clouds
Windchill 32 °F
Dew Point 36 °F
Humidity 93%
Rainfall 0.00 in
Snow Depth Not available.
UV Not available.
Pollen Not available.
Air Quality Not available.
Flu Activity Not available.
METAR EGHH 220450Z 27006KT CAVOK 03/02 Q1026

More Conditions Fewer Conditions

10-Day Weather Forecast

Almanac

Astronomy

Oct. 22, 2014 Rise Set
Actual Time 7:41 AM BST 6:01 PM BST
Civil Twilight 7:07 AM BST 6:34 PM BST
Nautical Twilight 6:29 AM BST 7:12 PM BST
Astronomical Twilight 5:51 AM BST 7:50 PM BST
Moon 5:59 AM BST 5:26 PM BST
Length of Visible Light 11h 26m
Length of Day
10h 19m
Tomorrow will be 3m 39s shorter.
Waning Crescent, 3% of the Moon is Illuminated
Today
Waning Crescent
Oct 23
New
Oct 30
First Quarter
Nov 6
Full
Nov 14
Last Quarter

Yesterday's Extremes

Country Highs Country Lows

Community

WunderPhotos

Upload Photos

1,763,882 photos uploaded!

Nearby

Snow Depth

Not available.

Earthquake Activity

City Distance Mag. Time & Date
No recent earthquake activity has been reported nearby.
Minimum magnitude displayed is 2.5.

Coastal Water Temperatures

Place Temperature
No Stations Reporting

Nearby Weather Stations